Time;durP1;ratioP1;P1;durP2;ratioP2;P2;SDS_P1;SDS_P2;PMS_P1;PMS_P2;Temp;Humidity;BMP_temperature;BMP_pressure;BME280_temperature;BME280_humidity;BME280_pressure;Samples;Min_cycle;Max_cycle;Signal;HPM_P1;HPM_P2
2021/01/15 00:00:58;;;;;;;2.03;1.93;;;19.30;46.30;;;;;;4991237;28;20485;-70
2021/01/15 00:03:25;;;;;;;2.60;2.17;;;19.30;45.50;;;;;;4997663;28;21004;-72
2021/01/15 00:05:51;;;;;;;1.90;1.80;;;19.30;45.50;;;;;;4992620;28;20495;-71
2021/01/15 00:08:17;;;;;;;2.80;1.90;;;19.30;45.30;;;;;;4994403;28;20497;-71
2021/01/15 00:10:44;;;;;;;2.00;1.90;;;19.30;45.50;;;;;;4992502;28;21051;-71
2021/01/15 00:13:10;;;;;;;2.10;2.00;;;19.30;45.60;;;;;;4984061;28;20488;-69
2021/01/15 00:15:36;;;;;;;2.10;2.00;;;19.30;45.60;;;;;;4990088;28;20498;-69
2021/01/15 00:18:02;;;;;;;1.90;1.80;;;19.30;45.60;;;;;;4994145;28;20484;-69
2021/01/15 00:20:29;;;;;;;2.43;2.20;;;19.30;45.80;;;;;;4997593;28;20489;-70
2021/01/15 00:22:55;;;;;;;2.03;1.93;;;19.30;45.80;;;;;;4986877;28;20504;-69
2021/01/15 00:25:21;;;;;;;2.03;1.93;;;19.20;45.60;;;;;;4991970;28;20555;-71
2021/01/15 00:27:48;;;;;;;2.40;2.30;;;19.20;45.60;;;;;;4991629;28;21018;-71
2021/01/15 00:30:15;;;;;;;1.97;1.87;;;19.20;45.50;;;;;;4990930;28;20484;-70
2021/01/15 00:32:41;;;;;;;1.80;1.70;;;19.30;45.70;;;;;;4990648;28;20492;-70
2021/01/15 00:35:08;;;;;;;2.83;2.63;;;19.30;45.70;;;;;;4992874;28;20488;-70
2021/01/15 00:37:34;;;;;;;1.77;1.77;;;19.30;45.60;;;;;;4991795;28;20485;-70
2021/01/15 00:40:00;;;;;;;4.03;2.80;;;19.30;45.60;;;;;;4991712;28;20481;-70
2021/01/15 00:42:26;;;;;;;2.70;2.50;;;19.30;45.60;;;;;;4980911;28;20533;-70
2021/01/15 00:44:55;;;;;;;1.60;1.50;;;19.30;45.60;;;;;;4990846;28;20493;-71
2021/01/15 00:47:21;;;;;;;2.43;2.33;;;19.30;45.50;;;;;;4990309;28;20911;-71
2021/01/15 00:49:47;;;;;;;2.47;2.37;;;19.30;45.50;;;;;;4989780;28;20514;-70
2021/01/15 00:52:13;;;;;;;1.83;1.73;;;19.30;45.60;;;;;;4990216;28;20484;-69
2021/01/15 00:54:40;;;;;;;2.20;2.10;;;19.30;45.60;;;;;;4990464;28;20496;-70
2021/01/15 00:57:06;;;;;;;2.27;2.17;;;19.30;45.80;;;;;;4981062;28;20569;-71
2021/01/15 00:59:32;;;;;;;2.37;2.17;;;19.20;45.70;;;;;;4991594;28;20481;-70
2021/01/15 01:01:59;;;;;;;3.00;2.80;;;19.30;45.60;;;;;;4990692;28;20480;-70
2021/01/15 01:04:26;;;;;;;2.50;2.40;;;19.30;45.60;;;;;;4978911;28;20496;-70
2021/01/15 01:06:52;;;;;;;2.13;2.03;;;19.30;45.70;;;;;;4978979;28;20493;-71
2021/01/15 01:09:19;;;;;;;2.63;2.43;;;19.40;45.60;;;;;;4991602;28;20902;-69
2021/01/15 01:11:45;;;;;;;2.33;2.23;;;19.40;45.60;;;;;;4996283;28;20492;-71
2021/01/15 01:14:11;;;;;;;2.40;2.30;;;19.50;45.70;;;;;;4990232;28;20484;-71
2021/01/15 01:16:37;;;;;;;2.20;2.10;;;19.50;45.80;;;;;;4992585;28;20484;-71
2021/01/15 01:19:04;;;;;;;2.40;2.20;;;19.50;45.60;;;;;;4990291;28;20481;-70
2021/01/15 01:21:32;;;;;;;2.80;2.63;;;19.60;45.60;;;;;;4990772;28;20477;-70
2021/01/15 01:23:58;;;;;;;2.60;2.50;;;19.60;45.60;;;;;;4989852;28;21424;-70
2021/01/15 01:26:24;;;;;;;2.07;1.97;;;19.60;45.50;;;;;;4989573;28;20539;-70
2021/01/15 01:28:51;;;;;;;2.53;2.43;;;19.60;45.30;;;;;;4991429;28;20478;-72
2021/01/15 01:31:17;;;;;;;2.70;2.60;;;19.60;45.20;;;;;;4992486;28;20488;-69
2021/01/15 01:33:44;;;;;;;2.60;2.40;;;19.60;45.10;;;;;;4992142;28;20488;-71
2021/01/15 01:36:11;;;;;;;3.23;2.90;;;19.50;45.00;;;;;;4989233;28;20554;-71
2021/01/15 01:38:37;;;;;;;2.20;2.10;;;19.50;45.00;;;;;;4990369;28;21072;-70
2021/01/15 01:41:03;;;;;;;2.47;2.27;;;19.50;45.40;;;;;;4989584;28;20960;-71
2021/01/15 01:43:29;;;;;;;2.13;2.03;;;19.50;45.50;;;;;;4990213;28;21733;-71
2021/01/15 01:45:56;;;;;;;3.23;2.30;;;19.50;45.50;;;;;;4978464;28;20489;-71
2021/01/15 01:48:22;;;;;;;2.30;2.20;;;19.40;45.50;;;;;;4989429;28;20492;-69
2021/01/15 01:50:48;;;;;;;2.33;2.23;;;19.40;45.20;;;;;;4991646;28;20547;-71
2021/01/15 01:53:17;;;;;;;2.40;2.30;;;19.40;45.20;;;;;;4990079;28;20491;-71
2021/01/15 01:55:43;;;;;;;1.90;1.83;;;19.40;45.40;;;;;;4989192;28;20542;-71
2021/01/15 01:58:09;;;;;;;2.47;2.27;;;19.40;45.60;;;;;;4990634;28;21552;-70
2021/01/15 02:00:36;;;;;;;2.57;2.37;;;19.40;45.40;;;;;;4988336;28;20493;-71
2021/01/15 02:03:03;;;;;;;2.50;2.40;;;19.40;45.50;;;;;;4984837;28;20550;-70
2021/01/15 02:05:29;;;;;;;2.23;2.03;;;19.40;45.40;;;;;;4983873;28;20485;-71
2021/01/15 02:07:55;;;;;;;2.80;2.60;;;19.40;45.30;;;;;;4990778;28;20485;-71
2021/01/15 02:10:26;;;;;;;3.07;2.87;;;19.40;45.30;;;;;;4991247;28;21294;-70
2021/01/15 02:12:59;;;;;;;2.20;2.10;;;19.40;45.20;;;;;;4990570;28;20489;-71
2021/01/15 02:15:28;;;;;;;2.47;2.37;;;19.40;45.10;;;;;;4987491;28;20484;-70
2021/01/15 02:17:56;;;;;;;2.50;2.40;;;19.50;45.30;;;;;;4994202;28;20488;-69
2021/01/15 02:20:29;;;;;;;2.90;2.70;;;19.50;45.20;;;;;;4992795;28;20538;-70
2021/01/15 02:23:01;;;;;;;2.03;1.93;;;19.50;45.20;;;;;;4990211;28;20489;-71
2021/01/15 02:26:10;;;;;;;3.27;3.07;;;19.40;45.10;;;;;;4988886;28;20563;-71
2021/01/15 02:29:07;;;;;;;2.27;2.17;;;19.40;45.20;;;;;;4962743;28;20480;-70
2021/01/15 02:32:09;;;;;;;2.83;1.90;;;19.40;45.30;;;;;;4952187;28;20483;-70
2021/01/15 02:34:44;;;;;;;2.30;2.20;;;19.40;45.30;;;;;;4990279;28;20547;-72
2021/01/15 02:37:16;;;;;;;2.47;2.37;;;19.40;45.30;;;;;;4983689;28;20945;-71
2021/01/15 02:39:48;;;;;;;2.60;2.50;;;19.40;45.40;;;;;;4989155;28;20520;-71
2021/01/15 02:42:14;;;;;;;2.73;1.70;;;19.30;46.00;;;;;;4987035;28;21091;-70
2021/01/15 02:44:41;;;;;;;2.00;1.90;;;19.40;45.40;;;;;;4988987;28;20485;-71
2021/01/15 02:47:07;;;;;;;2.03;1.93;;;19.40;45.60;;;;;;4989447;28;20980;-70
2021/01/15 02:49:34;;;;;;;2.70;2.43;;;19.30;45.50;;;;;;4979001;28;20479;-70
2021/01/15 02:52:02;;;;;;;2.60;2.50;;;19.30;45.30;;;;;;4989706;28;20489;-70
2021/01/15 02:54:28;;;;;;;2.73;2.63;;;19.30;45.40;;;;;;4979759;28;20538;-71
2021/01/15 02:56:54;;;;;;;2.90;2.70;;;19.30;45.50;;;;;;4989598;28;20485;-70
2021/01/15 02:59:20;;;;;;;2.13;2.00;;;19.30;45.30;;;;;;4991646;28;20588;-71
2021/01/15 03:01:51;;;;;;;2.37;2.17;;;19.30;45.50;;;;;;4988124;28;20555;-71
2021/01/15 03:04:22;;;;;;;2.93;2.70;;;19.30;45.50;;;;;;4988819;28;20619;-70
2021/01/15 03:06:50;;;;;;;2.50;2.40;;;19.30;45.20;;;;;;4988019;28;20484;-71
2021/01/15 03:09:17;;;;;;;2.30;2.20;;;19.30;45.20;;;;;;4978669;28;20485;-70
2021/01/15 03:11:44;;;;;;;2.23;2.13;;;19.40;45.20;;;;;;4988083;28;20484;-69
2021/01/15 03:14:10;;;;;;;2.50;2.40;;;19.40;45.20;;;;;;4987145;28;20542;-71
2021/01/15 03:16:36;;;;;;;2.10;2.00;;;19.40;45.20;;;;;;4972379;28;20489;-71
2021/01/15 03:19:02;;;;;;;2.00;1.90;;;19.40;45.20;;;;;;4970636;28;20486;-70
2021/01/15 03:21:29;;;;;;;2.33;2.23;;;19.40;45.10;;;;;;4971241;28;20489;-70
2021/01/15 03:23:56;;;;;;;3.13;2.93;;;19.40;45.90;;;;;;4964943;28;20489;-71
2021/01/15 03:26:23;;;;;;;5.13;2.53;;;19.40;45.30;;;;;;4970126;28;21504;-70
2021/01/15 03:28:50;;;;;;;2.23;2.13;;;19.40;45.20;;;;;;4990603;28;20548;-71
2021/01/15 03:31:16;;;;;;;2.00;1.80;;;19.40;45.20;;;;;;4996931;28;20477;-70
2021/01/15 03:33:42;;;;;;;2.40;2.30;;;19.40;45.30;;;;;;4993045;28;20867;-70
2021/01/15 03:36:08;;;;;;;4.43;2.77;;;19.40;45.30;;;;;;4972933;28;20507;-70
2021/01/15 03:38:34;;;;;;;2.33;2.23;;;19.40;45.30;;;;;;4971727;28;21391;-70
2021/01/15 03:41:01;;;;;;;2.40;2.30;;;19.30;45.20;;;;;;4968178;28;21537;-71
2021/01/15 03:43:28;;;;;;;2.10;2.00;;;19.30;45.10;;;;;;4961915;28;20865;-71
2021/01/15 03:45:55;;;;;;;2.80;2.40;;;19.40;45.20;;;;;;4969526;28;20481;-71
2021/01/15 03:48:21;;;;;;;1.80;1.70;;;19.40;45.10;;;;;;4971947;28;20926;-71
2021/01/15 03:50:47;;;;;;;2.40;1.90;;;19.40;45.40;;;;;;4972363;28;21056;-70
2021/01/15 03:53:14;;;;;;;2.10;2.00;;;19.40;45.40;;;;;;4969161;28;20489;-71
2021/01/15 03:55:40;;;;;;;2.20;2.10;;;19.40;45.60;;;;;;4968677;28;20489;-71
2021/01/15 03:58:06;;;;;;;2.20;2.10;;;19.50;45.60;;;;;;4973672;28;21693;-72
2021/01/15 04:00:33;;;;;;;2.20;2.03;;;19.50;45.50;;;;;;4966185;28;20476;-70
2021/01/15 04:02:59;;;;;;;2.17;2.07;;;19.60;45.50;;;;;;4973715;28;20525;-70
2021/01/15 04:05:25;;;;;;;2.00;1.90;;;19.60;45.20;;;;;;4971414;28;20999;-70
2021/01/15 04:07:52;;;;;;;1.80;1.70;;;19.60;44.90;;;;;;4971918;28;20505;-70
2021/01/15 04:10:18;;;;;;;2.43;2.23;;;19.60;44.80;;;;;;4971760;28;20552;-71
2021/01/15 04:12:45;;;;;;;2.23;2.13;;;19.60;44.70;;;;;;4971495;28;20492;-71
2021/01/15 04:15:12;;;;;;;2.07;1.90;;;19.60;44.50;;;;;;4970080;28;20488;-72
2021/01/15 04:17:39;;;;;;;1.43;1.40;;;19.60;44.50;;;;;;4969518;28;20499;-71
2021/01/15 04:20:06;;;;;;;1.80;1.70;;;19.60;44.40;;;;;;4990547;28;21076;-71
2021/01/15 04:22:34;;;;;;;1.47;1.47;;;19.60;44.30;;;;;;4992159;28;22390;-71
2021/01/15 04:25:00;;;;;;;2.00;1.90;;;19.60;44.20;;;;;;4991290;28;20493;-71
2021/01/15 04:27:28;;;;;;;2.40;2.23;;;19.60;44.20;;;;;;4992681;28;20480;-71
2021/01/15 04:29:54;;;;;;;2.33;2.23;;;19.70;45.00;;;;;;4991909;28;20538;-71
2021/01/15 04:32:20;;;;;;;1.77;1.67;;;19.70;44.20;;;;;;4992238;28;20489;-70
2021/01/15 04:34:47;;;;;;;2.10;2.00;;;19.70;44.10;;;;;;4991148;28;20477;-71
2021/01/15 04:37:14;;;;;;;2.10;2.00;;;19.70;44.30;;;;;;4991016;28;20785;-71
2021/01/15 04:39:40;;;;;;;2.10;2.00;;;19.70;44.30;;;;;;4992384;28;20508;-71
2021/01/15 04:42:06;;;;;;;1.90;1.80;;;19.70;44.30;;;;;;4991334;28;20485;-70
2021/01/15 04:44:32;;;;;;;2.50;2.40;;;19.70;44.30;;;;;;4990573;28;20481;-71
2021/01/15 04:46:58;;;;;;;1.90;1.80;;;19.70;44.30;;;;;;4991552;28;20488;-71
2021/01/15 04:49:25;;;;;;;1.90;1.73;;;19.70;44.40;;;;;;4992458;28;20504;-71
2021/01/15 04:51:57;;;;;;;1.80;1.70;;;19.70;44.50;;;;;;4990800;28;20854;-71
2021/01/15 04:54:28;;;;;;;2.20;2.10;;;19.60;44.50;;;;;;4991643;28;20532;-71
2021/01/15 04:56:54;;;;;;;2.40;2.17;;;19.60;44.50;;;;;;4990036;28;20497;-71
2021/01/15 04:59:20;;;;;;;1.60;1.50;;;19.50;44.40;;;;;;4991575;28;20495;-70
2021/01/15 05:01:47;;;;;;;2.13;2.03;;;19.60;44.40;;;;;;4991086;28;20539;-71
2021/01/15 05:04:14;;;;;;;1.63;1.63;;;19.60;44.40;;;;;;4982239;28;20503;-70
2021/01/15 05:06:47;;;;;;;2.63;2.53;;;19.60;44.30;;;;;;4990740;28;20485;-71
2021/01/15 05:09:15;;;;;;;2.67;2.50;;;19.60;44.30;;;;;;4981192;28;20489;-70
2021/01/15 05:11:42;;;;;;;1.80;1.70;;;19.60;44.20;;;;;;4981453;28;20468;-72
2021/01/15 05:14:09;;;;;;;2.03;1.97;;;19.60;44.20;;;;;;4992137;28;20524;-70
2021/01/15 05:16:37;;;;;;;1.87;1.77;;;19.70;44.20;;;;;;4991205;28;21158;-71
2021/01/15 05:19:03;;;;;;;2.10;2.00;;;19.70;44.10;;;;;;4969987;28;20497;-71
2021/01/15 05:21:29;;;;;;;1.57;1.47;;;19.70;44.00;;;;;;4999306;28;20969;-70
2021/01/15 05:23:55;;;;;;;1.83;1.73;;;19.70;44.00;;;;;;4987065;28;20506;-71
2021/01/15 05:26:23;;;;;;;2.10;2.00;;;19.70;44.00;;;;;;4990443;28;20489;-71
2021/01/15 05:28:49;;;;;;;1.93;1.80;;;19.70;43.80;;;;;;4991122;28;20493;-71
2021/01/15 05:31:15;;;;;;;1.97;1.87;;;19.80;43.90;;;;;;4980273;28;20483;-71
2021/01/15 05:33:41;;;;;;;1.93;1.83;;;19.80;43.90;;;;;;5005858;28;20484;-70
2021/01/15 05:36:07;;;;;;;1.80;1.70;;;19.80;43.90;;;;;;4989283;28;20480;-71
2021/01/15 05:38:34;;;;;;;1.63;1.53;;;19.80;43.90;;;;;;4990653;28;20519;-70
2021/01/15 05:41:00;;;;;;;2.07;1.97;;;19.80;43.80;;;;;;4992072;28;21027;-71
2021/01/15 05:43:27;;;;;;;1.57;1.47;;;19.80;43.80;;;;;;4990170;28;20874;-69
2021/01/15 05:46:07;;;;;;;1.70;1.60;;;19.90;43.90;;;;;;4992275;28;20603;-71
2021/01/15 05:48:33;;;;;;;1.87;1.77;;;19.90;43.80;;;;;;4990682;28;20475;-70
2021/01/15 05:50:59;;;;;;;2.23;1.80;;;19.90;43.70;;;;;;4990702;28;20492;-71
2021/01/15 05:53:25;;;;;;;1.80;1.60;;;19.90;43.70;;;;;;4987867;28;20493;-71
2021/01/15 05:55:55;;;;;;;2.00;1.90;;;19.90;43.70;;;;;;4982761;28;20488;-71
2021/01/15 05:58:21;;;;;;;2.20;2.00;;;19.90;43.60;;;;;;4992296;28;21500;-70
2021/01/15 06:00:51;;;;;;;1.97;1.87;;;19.90;43.70;;;;;;4983016;28;20563;-71
2021/01/15 06:03:18;;;;;;;1.60;1.50;;;19.90;43.70;;;;;;4991285;28;20539;-72
2021/01/15 06:05:48;;;;;;;2.10;2.00;;;19.90;43.70;;;;;;4989097;28;20495;-72
2021/01/15 06:08:14;;;;;;;2.10;1.93;;;20.00;43.70;;;;;;4989977;28;20468;-72
2021/01/15 06:10:42;;;;;;;2.13;2.03;;;20.00;43.50;;;;;;4992403;28;20485;-71
2021/01/15 06:13:09;;;;;;;1.90;1.80;;;20.00;43.60;;;;;;4980714;28;20888;-71
2021/01/15 06:15:45;;;;;;;1.60;1.50;;;20.00;43.60;;;;;;4992681;28;20500;-71
2021/01/15 06:18:16;;;;;;;2.03;1.80;;;20.00;43.50;;;;;;4978960;28;20530;-71
2021/01/15 06:20:44;;;;;;;2.30;2.10;;;20.00;43.50;;;;;;4975504;28;20989;-71
2021/01/15 06:23:12;;;;;;;1.70;1.60;;;20.00;43.60;;;;;;4977857;28;20481;-73
2021/01/15 06:25:55;;;;;;;2.00;1.90;;;20.00;43.50;;;;;;4987715;28;20489;-71
2021/01/15 06:28:21;;;;;;;1.97;1.87;;;20.00;43.40;;;;;;4991810;28;20476;-71
2021/01/15 06:30:58;;;;;;;1.97;1.87;;;20.00;43.40;;;;;;4989147;28;20602;-71
2021/01/15 06:33:25;;;;;;;2.10;2.00;;;20.00;43.40;;;;;;4991706;28;20574;-70
2021/01/15 06:35:52;;;;;;;2.10;2.00;;;20.00;43.50;;;;;;4987971;28;20485;-71
2021/01/15 06:38:18;;;;;;;2.57;2.37;;;20.00;43.40;;;;;;4991014;28;20512;-71
2021/01/15 06:40:45;;;;;;;1.70;1.70;;;20.00;43.40;;;;;;4990841;28;20491;-71
2021/01/15 06:43:12;;;;;;;4.93;1.93;;;20.00;43.40;;;;;;4987629;28;21031;-71
2021/01/15 06:45:39;;;;;;;2.10;2.03;;;20.00;43.40;;;;;;4995176;28;20491;-71
2021/01/15 06:48:08;;;;;;;1.80;1.70;;;19.90;43.30;;;;;;4988261;28;20993;-71
2021/01/15 06:50:37;;;;;;;2.47;2.37;;;19.90;43.40;;;;;;4989598;28;21053;-71
2021/01/15 06:53:13;;;;;;;1.90;1.80;;;19.90;43.40;;;;;;4988726;28;21280;-70
2021/01/15 06:55:40;;;;;;;1.63;1.63;;;19.90;43.40;;;;;;4991769;28;20507;-71
2021/01/15 06:58:06;;;;;;;1.80;1.70;;;20.00;43.50;;;;;;4990648;28;20493;-71
2021/01/15 07:00:32;;;;;;;2.03;1.93;;;20.00;43.50;;;;;;4991040;28;20503;-71
2021/01/15 07:03:33;;;;;;;1.93;1.83;;;20.00;43.50;;;;;;5009454;28;20486;-71
2021/01/15 07:06:00;;;;;;;1.93;1.93;;;20.00;43.30;;;;;;4998489;28;20476;-71
2021/01/15 07:08:26;;;;;;;1.70;1.60;;;20.00;43.40;;;;;;4992700;28;20481;-70
2021/01/15 07:10:52;;;;;;;2.00;1.90;;;20.00;43.40;;;;;;4996168;28;20484;-71
2021/01/15 07:13:21;;;;;;;2.10;2.00;;;20.00;43.40;;;;;;4982776;28;21036;-70
2021/01/15 07:15:47;;;;;;;1.97;1.87;;;20.00;43.40;;;;;;4989671;28;20571;-70
2021/01/15 07:18:21;;;;;;;2.00;1.90;;;19.90;43.30;;;;;;4994890;28;20507;-70
2021/01/15 07:20:47;;;;;;;2.00;1.90;;;19.90;43.40;;;;;;4991283;28;20481;-70
2021/01/15 07:23:15;;;;;;;2.20;2.10;;;19.90;43.50;;;;;;4987824;28;20515;-70
2021/01/15 07:25:46;;;;;;;3.33;2.17;;;20.00;43.60;;;;;;4982578;28;21433;-71
2021/01/15 07:28:12;;;;;;;2.10;2.00;;;20.00;43.60;;;;;;4985920;28;20485;-70
2021/01/15 07:30:39;;;;;;;3.07;2.70;;;19.90;43.40;;;;;;4988020;28;20488;-70
2021/01/15 07:33:06;;;;;;;2.20;2.00;;;19.90;43.50;;;;;;4987413;28;20485;-70
2021/01/15 07:35:36;;;;;;;1.80;1.70;;;19.90;43.50;;;;;;4992891;28;20491;-70
2021/01/15 07:38:09;;;;;;;1.70;1.60;;;19.90;43.60;;;;;;4993236;28;20944;-70
2021/01/15 07:40:36;;;;;;;1.70;1.60;;;19.90;43.60;;;;;;4991830;28;20487;-70
2021/01/15 07:43:03;;;;;;;2.47;2.37;;;19.90;43.50;;;;;;4986964;28;20489;-70
2021/01/15 07:45:57;;;;;;;2.93;2.30;;;19.90;43.50;;;;;;4993080;28;20493;-69
2021/01/15 07:48:23;;;;;;;1.67;1.63;;;19.90;43.60;;;;;;4973134;28;20478;-70
2021/01/15 07:50:50;;;;;;;2.43;2.33;;;19.80;43.50;;;;;;4963237;28;20489;-70
2021/01/15 07:53:27;;;;;;;2.50;2.40;;;19.80;43.60;;;;;;4970953;28;20520;-70
2021/01/15 07:55:56;;;;;;;2.00;1.90;;;19.80;43.50;;;;;;4974843;28;20488;-70
2021/01/15 07:58:23;;;;;;;2.20;2.10;;;19.80;43.50;;;;;;4976782;28;20521;-70
2021/01/15 08:00:49;;;;;;;2.30;2.10;;;19.80;43.60;;;;;;4963499;28;20489;-70
2021/01/15 08:03:15;;;;;;;2.27;2.17;;;19.80;43.60;;;;;;4973689;28;20476;-70
2021/01/15 08:05:43;;;;;;;2.07;1.97;;;19.70;44.30;;;;;;4967755;28;20492;-69
2021/01/15 08:08:11;;;;;;;2.50;2.00;;;19.80;43.70;;;;;;4973308;28;20489;-71
2021/01/15 08:10:48;;;;;;;1.87;1.77;;;19.70;43.60;;;;;;4975555;28;20488;-70
2021/01/15 08:13:19;;;;;;;2.10;2.00;;;19.70;43.60;;;;;;4966250;28;20523;-71
2021/01/15 08:15:46;;;;;;;2.80;2.60;;;19.70;43.80;;;;;;4985715;28;21065;-70
2021/01/15 08:18:12;;;;;;;2.20;2.10;;;19.80;43.80;;;;;;4992047;28;20496;-71
2021/01/15 08:20:38;;;;;;;2.37;2.20;;;19.80;43.70;;;;;;4992261;28;20481;-70
2021/01/15 08:23:04;;;;;;;1.80;1.70;;;19.80;43.70;;;;;;4991916;28;20489;-70
2021/01/15 08:25:31;;;;;;;2.50;2.30;;;19.80;43.60;;;;;;4994195;28;20480;-70
2021/01/15 08:27:57;;;;;;;1.60;1.60;;;19.80;43.50;;;;;;4992800;28;20491;-70
2021/01/15 08:30:24;;;;;;;2.23;2.13;;;19.90;43.50;;;;;;4992318;28;20488;-71
2021/01/15 08:32:51;;;;;;;2.10;2.00;;;19.90;43.50;;;;;;4991037;28;20488;-70
2021/01/15 08:35:26;;;;;;;1.93;1.83;;;19.90;43.60;;;;;;4990913;28;20484;-71
2021/01/15 08:37:57;;;;;;;2.20;2.10;;;19.90;43.60;;;;;;4990703;28;21259;-71
2021/01/15 08:40:26;;;;;;;1.77;1.67;;;19.80;43.50;;;;;;4994912;28;20492;-70
2021/01/15 08:42:54;;;;;;;2.80;2.70;;;19.80;43.50;;;;;;4989875;28;20481;-71
2021/01/15 08:45:26;;;;;;;2.93;2.37;;;19.80;43.40;;;;;;4991084;28;20480;-70
2021/01/15 08:47:53;;;;;;;1.87;1.80;;;19.80;43.40;;;;;;4992245;28;20493;-70
2021/01/15 08:50:19;;;;;;;2.40;2.20;;;19.80;43.40;;;;;;4992664;28;20484;-71
2021/01/15 08:52:45;;;;;;;2.70;2.50;;;19.80;43.50;;;;;;4992408;28;20490;-70
2021/01/15 08:55:13;;;;;;;2.80;2.60;;;19.80;43.50;;;;;;4981413;28;21036;-70
2021/01/15 08:57:39;;;;;;;3.00;2.77;;;19.80;43.50;;;;;;4994289;28;20503;-70
2021/01/15 09:00:09;;;;;;;2.40;2.30;;;19.70;43.50;;;;;;4993757;28;20489;-70
2021/01/15 09:02:38;;;;;;;2.30;2.20;;;19.70;43.50;;;;;;4990995;28;21151;-70
2021/01/15 09:05:06;;;;;;;2.77;2.53;;;19.70;43.50;;;;;;4990446;28;20491;-72
2021/01/15 09:07:33;;;;;;;2.70;2.50;;;19.70;43.60;;;;;;4996779;28;20551;-70
2021/01/15 09:09:59;;;;;;;2.47;2.27;;;19.70;43.60;;;;;;4991345;28;20543;-70
2021/01/15 09:12:25;;;;;;;2.37;2.27;;;19.70;43.70;;;;;;4991637;28;20508;-70
2021/01/15 09:14:51;;;;;;;2.57;2.47;;;19.70;43.70;;;;;;4989418;28;20488;-70
2021/01/15 09:17:17;;;;;;;2.70;2.60;;;19.70;43.80;;;;;;4991023;28;20488;-71
2021/01/15 09:19:44;;;;;;;2.60;2.50;;;19.70;43.60;;;;;;4991059;28;20484;-70
2021/01/15 09:22:17;;;;;;;2.13;2.03;;;19.80;43.80;;;;;;4991111;28;20481;-71
2021/01/15 09:24:43;;;;;;;2.30;2.20;;;19.80;43.70;;;;;;4986552;28;20492;-71
2021/01/15 09:27:10;;;;;;;2.60;2.40;;;19.80;43.70;;;;;;4990337;28;21516;-71
2021/01/15 09:29:38;;;;;;;2.40;2.30;;;19.80;44.40;;;;;;4993031;28;25117;-70
2021/01/15 09:32:05;;;;;;;2.43;2.33;;;19.80;43.60;;;;;;4991355;28;20520;-70
2021/01/15 09:34:31;;;;;;;2.60;2.50;;;19.80;43.60;;;;;;4990872;28;21406;-71
2021/01/15 09:36:58;;;;;;;2.13;2.03;;;19.70;43.50;;;;;;4978989;28;20519;-71
2021/01/15 09:39:26;;;;;;;2.00;1.90;;;19.70;43.50;;;;;;4992591;28;20489;-71
2021/01/15 09:41:53;;;;;;;3.67;3.37;;;19.70;43.60;;;;;;4988696;28;20490;-70
2021/01/15 09:44:19;;;;;;;3.53;2.50;;;19.70;43.70;;;;;;4989122;28;20868;-70
2021/01/15 09:46:46;;;;;;;2.50;2.40;;;19.70;44.40;;;;;;4990481;28;20560;-71
2021/01/15 09:49:12;;;;;;;3.00;2.80;;;19.70;43.50;;;;;;4988658;28;20488;-70
2021/01/15 09:51:38;;;;;;;2.70;2.60;;;19.70;43.60;;;;;;4990763;28;20493;-69
2021/01/15 09:54:05;;;;;;;2.07;1.97;;;19.70;43.60;;;;;;4989534;28;21472;-69
2021/01/15 09:56:33;;;;;;;2.20;2.00;;;19.70;43.70;;;;;;4993187;28;20496;-71
2021/01/15 09:59:00;;;;;;;2.40;2.30;;;19.60;43.60;;;;;;4987333;28;21451;-70
2021/01/15 10:01:26;;;;;;;2.13;2.03;;;19.60;43.80;;;;;;4980324;28;20482;-70
2021/01/15 10:03:53;;;;;;;2.97;2.77;;;19.60;43.60;;;;;;4992910;28;20496;-69
2021/01/15 10:06:19;;;;;;;2.20;2.00;;;19.70;43.70;;;;;;4991726;28;20495;-69
2021/01/15 10:08:46;;;;;;;2.47;2.33;;;19.70;43.60;;;;;;4980298;28;20476;-71
2021/01/15 10:11:20;;;;;;;2.87;2.67;;;19.60;43.60;;;;;;4988504;28;20881;-71
2021/01/15 10:13:47;;;;;;;3.20;2.90;;;19.70;43.80;;;;;;4990488;28;21007;-70
2021/01/15 10:16:13;;;;;;;3.10;2.90;;;19.70;43.80;;;;;;4989981;28;21073;-69
2021/01/15 10:18:39;;;;;;;3.80;2.87;;;19.70;43.70;;;;;;4982271;28;20476;-71
2021/01/15 10:21:05;;;;;;;2.43;2.33;;;19.70;43.70;;;;;;4991820;28;20500;-70
2021/01/15 10:23:31;;;;;;;2.40;2.30;;;19.70;43.60;;;;;;4978740;28;20485;-71
2021/01/15 10:25:57;;;;;;;3.03;2.73;;;19.70;43.70;;;;;;4991113;28;20486;-71
2021/01/15 10:28:24;;;;;;;2.87;2.67;;;19.70;43.70;;;;;;4990843;28;20481;-70
2021/01/15 10:30:50;;;;;;;2.30;2.10;;;19.70;43.60;;;;;;4988256;28;20559;-71
2021/01/15 10:33:17;;;;;;;3.27;2.90;;;19.80;43.70;;;;;;4996031;28;20490;-70
2021/01/15 10:35:43;;;;;;;3.13;2.57;;;19.80;43.60;;;;;;5010383;28;20473;-70
2021/01/15 10:38:09;;;;;;;2.90;2.80;;;19.80;43.60;;;;;;5003718;28;20488;-70
2021/01/15 10:40:36;;;;;;;2.57;2.47;;;19.80;43.60;;;;;;4999879;28;20489;-70
2021/01/15 10:43:02;;;;;;;3.10;2.83;;;19.70;43.60;;;;;;4979125;28;20484;-70
2021/01/15 10:45:29;;;;;;;2.50;2.30;;;19.70;43.60;;;;;;4995186;28;20489;-70
2021/01/15 10:47:55;;;;;;;2.50;2.40;;;19.70;43.80;;;;;;4988750;28;21082;-70
2021/01/15 10:50:21;;;;;;;2.30;2.20;;;19.70;43.70;;;;;;4988142;28;20815;-71
2021/01/15 10:52:51;;;;;;;2.43;2.30;;;19.70;43.70;;;;;;4992183;28;20479;-70
2021/01/15 10:55:18;;;;;;;2.43;2.33;;;19.60;43.70;;;;;;4959886;28;20497;-70
2021/01/15 10:57:44;;;;;;;2.97;2.87;;;19.60;43.60;;;;;;4977132;28;20473;-69
2021/01/15 11:00:11;;;;;;;2.57;2.47;;;19.60;43.70;;;;;;4993631;28;20507;-71
2021/01/15 11:02:39;;;;;;;3.13;2.93;;;19.60;43.70;;;;;;4989876;28;20526;-70
2021/01/15 11:05:06;;;;;;;2.27;2.17;;;19.60;43.60;;;;;;4995464;28;20484;-69
2021/01/15 11:07:33;;;;;;;2.60;2.50;;;19.60;43.70;;;;;;4984307;28;21162;-70
2021/01/15 11:09:59;;;;;;;2.53;2.43;;;19.60;43.60;;;;;;4985323;28;21058;-69
2021/01/15 11:12:25;;;;;;;2.53;2.33;;;19.60;43.60;;;;;;4988808;28;20483;-70
2021/01/15 11:14:51;;;;;;;3.17;2.97;;;19.60;43.70;;;;;;4992026;28;20492;-70
2021/01/15 11:17:17;;;;;;;1.93;1.83;;;19.60;43.80;;;;;;4985688;28;20489;-70
2021/01/15 11:19:44;;;;;;;2.90;2.70;;;19.60;43.80;;;;;;4996231;28;20495;-70
2021/01/15 11:22:11;;;;;;;2.50;2.40;;;19.60;43.80;;;;;;4994921;28;21011;-70
2021/01/15 11:24:37;;;;;;;2.70;2.60;;;19.60;43.70;;;;;;4992647;28;20488;-70
2021/01/15 11:27:03;;;;;;;2.20;2.10;;;19.60;43.70;;;;;;4993297;28;20490;-70
2021/01/15 11:29:29;;;;;;;2.63;2.50;;;19.60;43.60;;;;;;4994810;28;20523;-70
2021/01/15 11:31:55;;;;;;;2.40;2.20;;;19.60;43.60;;;;;;4992076;28;20488;-70
2021/01/15 11:34:22;;;;;;;4.20;2.97;;;19.70;43.60;;;;;;4993282;28;20488;-70
2021/01/15 11:36:49;;;;;;;2.13;2.03;;;19.60;43.50;;;;;;4992383;28;21347;-69
2021/01/15 11:39:16;;;;;;;2.40;2.20;;;19.60;43.70;;;;;;4962783;28;20533;-70
2021/01/15 11:41:42;;;;;;;2.50;2.30;;;19.60;43.70;;;;;;4972672;28;20992;-70
2021/01/15 11:44:09;;;;;;;2.67;2.57;;;19.60;43.70;;;;;;4971867;28;21423;-71
2021/01/15 11:46:35;;;;;;;2.97;2.77;;;19.60;43.70;;;;;;4973797;28;21131;-70
2021/01/15 11:49:01;;;;;;;2.50;2.40;;;19.60;43.70;;;;;;4971816;28;20482;-72
2021/01/15 11:51:28;;;;;;;2.37;2.27;;;19.60;43.80;;;;;;4965938;28;20487;-71
2021/01/15 11:53:55;;;;;;;2.67;2.47;;;19.60;43.80;;;;;;4960670;28;21042;-70
2021/01/15 11:56:21;;;;;;;3.27;2.93;;;19.60;43.80;;;;;;4973736;28;20485;-69
2021/01/15 11:58:48;;;;;;;2.23;2.13;;;19.60;43.90;;;;;;4971747;28;20486;-69
2021/01/15 12:01:15;;;;;;;2.80;2.53;;;19.60;43.90;;;;;;4971002;28;21013;-70
2021/01/15 12:03:41;;;;;;;2.40;2.10;;;19.60;43.80;;;;;;4976402;28;20533;-70
2021/01/15 12:06:07;;;;;;;2.00;1.90;;;19.60;43.50;;;;;;4972482;28;20482;-71
2021/01/15 12:08:34;;;;;;;2.30;2.00;;;19.70;43.50;;;;;;4964413;28;20483;-70
2021/01/15 12:11:02;;;;;;;2.40;2.30;;;19.70;43.50;;;;;;4961629;28;20509;-70
2021/01/15 12:13:29;;;;;;;2.93;2.73;;;19.70;43.40;;;;;;4972088;28;22196;-70
2021/01/15 12:15:56;;;;;;;3.30;3.10;;;19.70;43.40;;;;;;4971834;28;20482;-70
2021/01/15 12:18:22;;;;;;;2.47;2.37;;;19.70;43.30;;;;;;4974019;28;20486;-70
2021/01/15 12:20:48;;;;;;;2.50;2.40;;;19.70;43.30;;;;;;4965641;28;20519;-70
2021/01/15 12:23:15;;;;;;;2.83;2.70;;;19.60;43.40;;;;;;4962089;28;20510;-70
2021/01/15 12:25:41;;;;;;;3.03;2.83;;;19.60;43.20;;;;;;4972519;28;20535;-70
2021/01/15 12:28:09;;;;;;;2.43;2.23;;;19.60;43.30;;;;;;4964079;28;20493;-70
2021/01/15 12:30:35;;;;;;;2.60;2.40;;;19.60;43.50;;;;;;4972043;28;20536;-70
2021/01/15 12:33:05;;;;;;;2.83;2.70;;;19.50;43.40;;;;;;4972214;28;20493;-70
2021/01/15 12:35:32;;;;;;;2.07;1.97;;;19.50;43.50;;;;;;4968929;28;20975;-70
2021/01/15 12:38:03;;;;;;;2.40;2.30;;;19.50;43.60;;;;;;4963821;28;20482;-70
2021/01/15 12:40:29;;;;;;;1.97;1.90;;;19.50;43.40;;;;;;4973156;28;20552;-69
2021/01/15 12:42:55;;;;;;;2.47;2.37;;;19.50;43.50;;;;;;4970673;28;20477;-71
2021/01/15 12:45:22;;;;;;;2.43;2.33;;;19.60;43.50;;;;;;4972103;28;20493;-70
2021/01/15 12:47:49;;;;;;;2.30;2.10;;;19.60;43.50;;;;;;4973170;28;20489;-70
2021/01/15 12:50:15;;;;;;;1.93;1.83;;;19.60;43.40;;;;;;4976434;28;20986;-69